createdAt,value
2019-04-22T00:00:36.645Z,8.30
2019-04-22T00:03:10.257Z,8.10
2019-04-22T00:06:02.214Z,8.00
2019-04-22T00:08:40.628Z,7.90
2019-04-22T00:11:11.006Z,7.80
2019-04-22T00:13:46.872Z,7.90
2019-04-22T00:16:07.174Z,7.80
2019-04-22T00:19:01.417Z,7.70
2019-04-22T00:21:21.385Z,7.70
2019-04-22T00:23:53.020Z,7.60
2019-04-22T00:26:26.107Z,7.50
2019-04-22T00:29:03.684Z,7.50
2019-04-22T00:31:31.675Z,7.40
2019-04-22T00:34:03.458Z,7.40
2019-04-22T00:36:38.153Z,7.30
2019-04-22T00:39:18.454Z,7.30
2019-04-22T00:41:42.556Z,7.20
2019-04-22T00:44:21.886Z,7.10
2019-04-22T00:46:46.823Z,7.30
2019-04-22T00:50:01.876Z,7.30
2019-04-22T00:51:52.886Z,7.30
2019-04-22T00:54:21.477Z,7.20
2019-04-22T00:56:59.253Z,7.10
2019-04-22T00:59:23.595Z,7.10
2019-04-22T01:02:00.402Z,7.10
2019-04-22T01:04:34.606Z,7.10
2019-04-22T01:06:57.499Z,7.00
2019-04-22T01:09:38.503Z,6.90
2019-04-22T01:12:09.521Z,6.80
2019-04-22T01:14:41.459Z,6.80
2019-04-22T01:17:06.391Z,6.70
2019-04-22T01:19:52.616Z,6.60
2019-04-22T01:22:17.364Z,6.60
2019-04-22T01:24:48.110Z,6.70
2019-04-22T01:27:11.549Z,6.60
2019-04-22T01:29:41.014Z,6.60
2019-04-22T01:32:13.171Z,6.50
2019-04-22T01:34:51.429Z,6.40
2019-04-22T01:37:26.896Z,6.40
2019-04-22T01:40:06.579Z,6.30
2019-04-22T01:42:39.709Z,6.30
2019-04-22T01:45:10.707Z,6.20
2019-04-22T01:50:16.873Z,6.10
2019-04-22T01:52:47.360Z,6.00
2019-04-22T01:55:27.724Z,6.00
2019-04-22T01:57:47.554Z,5.90
2019-04-22T02:00:11.296Z,5.90
2019-04-22T02:02:48.973Z,5.90
2019-04-22T02:05:24.316Z,5.80
2019-04-22T02:07:59.491Z,5.80
2019-04-22T02:10:36.248Z,5.80
2019-04-22T02:13:01.514Z,5.70
2019-04-22T02:15:31.466Z,5.60
2019-04-22T02:18:11.685Z,5.50
2019-04-22T02:20:40.223Z,5.40
2019-04-22T02:28:40.034Z,5.40
2019-04-22T02:31:23.546Z,5.30
2019-04-22T02:41:23.357Z,5.30
2019-04-22T02:49:02.002Z,5.10
2019-04-22T02:59:05.910Z,5.10
2019-04-22T03:04:06.711Z,5.10
2019-04-22T03:06:35.035Z,5.00
2019-04-22T03:14:04.796Z,4.90
2019-04-22T03:16:43.129Z,4.90
2019-04-22T03:21:52.360Z,4.80
2019-04-22T03:26:49.005Z,4.80
2019-04-22T03:30:36.715Z,4.70
2019-04-22T03:37:44.588Z,4.50
2019-04-22T03:42:51.974Z,4.50
2019-04-22T03:52:50.174Z,4.50
2019-04-22T04:05:37.668Z,5.40
2019-04-22T04:08:11.289Z,5.50
2019-04-22T04:13:33.202Z,5.70
2019-04-22T04:15:29.985Z,5.70
2019-04-22T04:18:03.353Z,5.80
2019-04-22T04:20:45.323Z,5.90
2019-04-22T04:23:24.321Z,6.00
2019-04-22T04:30:48.728Z,6.30
2019-04-22T04:33:23.307Z,6.30
2019-04-22T04:38:33.997Z,6.40
2019-04-22T04:40:57.994Z,6.40
2019-04-22T04:43:40.588Z,6.60
2019-04-22T04:46:07.277Z,6.60
2019-04-22T04:48:42.364Z,6.60
2019-04-22T04:53:33.277Z,6.70
2019-04-22T04:56:11.950Z,6.60
2019-04-22T05:01:23.203Z,6.60
2019-04-22T05:03:57.858Z,6.90
2019-04-22T05:06:24.219Z,7.20
2019-04-22T05:11:33.208Z,7.60
2019-04-22T05:16:40.550Z,7.70
2019-04-22T05:19:05.666Z,7.80
2019-04-22T05:21:26.560Z,7.70
2019-04-22T05:24:02.475Z,7.90
2019-04-22T05:26:34.217Z,8.00
2019-04-22T05:29:06.659Z,8.10
2019-04-22T05:31:38.660Z,8.20
2019-04-22T05:34:08.507Z,8.60
2019-04-22T05:36:40.286Z,8.80
2019-04-22T05:39:11.219Z,8.80
2019-04-22T05:41:42.389Z,9.00
2019-04-22T05:44:15.828Z,9.10
2019-04-22T05:46:47.507Z,8.90
2019-04-22T05:49:18.186Z,9.10
2019-04-22T05:51:48.238Z,9.00
2019-04-22T05:54:21.884Z,9.40
2019-04-22T05:56:53.368Z,9.30
2019-04-22T05:59:32.618Z,9.10
2019-04-22T06:04:29.620Z,9.60
2019-04-22T06:07:02.078Z,9.80
2019-04-22T06:09:33.911Z,9.90
2019-04-22T06:12:10.209Z,10.20
2019-04-22T06:14:41.902Z,10.30
2019-04-22T06:17:18.236Z,10.40
2019-04-22T06:19:52.857Z,10.40
2019-04-22T06:22:31.943Z,10.70
2019-04-22T06:24:59.295Z,10.90
2019-04-22T06:27:28.797Z,11.00
2019-04-22T06:29:55.422Z,10.80
2019-04-22T06:35:11.296Z,10.90
2019-04-22T06:37:45.400Z,11.30
2019-04-22T06:40:15.935Z,11.40
2019-04-22T06:42:42.744Z,11.50
2019-04-22T06:45:21.904Z,11.50
2019-04-22T06:48:01.843Z,11.60
2019-04-22T06:50:28.414Z,11.70
2019-04-22T06:52:52.288Z,11.80
2019-04-22T06:55:21.943Z,11.90
2019-04-22T06:57:51.109Z,11.60
2019-04-22T07:00:42.776Z,12.00
2019-04-22T07:03:24.114Z,11.90
2019-04-22T07:05:32.803Z,12.10
2019-04-22T07:08:27.525Z,12.20
2019-04-22T07:13:11.254Z,12.10
2019-04-22T07:18:18.079Z,12.50
2019-04-22T07:23:24.791Z,12.70
2019-04-22T07:25:50.231Z,12.80
2019-04-22T07:28:20.117Z,12.80
2019-04-22T07:31:00.350Z,13.00
2019-04-22T07:33:34.249Z,13.40
2019-04-22T07:36:23.434Z,13.10
2019-04-22T07:40:59.432Z,13.30
2019-04-22T07:43:53.082Z,13.50
2019-04-22T07:46:10.977Z,13.70
2019-04-22T07:48:45.195Z,13.70
2019-04-22T07:51:27.083Z,14.10
2019-04-22T07:53:40.089Z,14.30
2019-04-22T07:56:18.752Z,14.00
2019-04-22T07:58:48.972Z,13.80
2019-04-22T08:01:20.378Z,13.50
2019-04-22T08:04:17.734Z,13.60
2019-04-22T08:09:00.265Z,13.80
2019-04-22T08:13:58.737Z,14.10
2019-04-22T08:16:38.598Z,14.30
2019-04-22T08:19:16.987Z,14.10
2019-04-22T08:21:48.183Z,14.60
2019-04-22T08:24:18.424Z,14.80
2019-04-22T08:29:52.307Z,14.90
2019-04-22T08:32:22.387Z,15.00
2019-04-22T08:34:51.114Z,14.90
2019-04-22T08:40:00.333Z,14.20
2019-04-22T08:43:36.405Z,14.30
2019-04-22T08:45:09.507Z,14.40
2019-04-22T08:47:39.131Z,14.70
2019-04-22T08:50:07.729Z,14.80
2019-04-22T08:52:54.867Z,14.90
2019-04-22T09:00:43.610Z,14.90
2019-04-22T09:03:17.360Z,15.20
2019-04-22T09:06:00.809Z,15.10
2019-04-22T09:08:24.352Z,14.90
2019-04-22T09:10:58.424Z,15.40
2019-04-22T09:13:30.038Z,15.60
2019-04-22T09:15:56.758Z,15.70
2019-04-22T09:18:28.792Z,15.90
2019-04-22T09:21:07.317Z,15.90
2019-04-22T09:23:37.229Z,16.10
2019-04-22T09:26:10.707Z,16.30
2019-04-22T09:28:52.370Z,16.40
2019-04-22T09:32:00.250Z,16.40
2019-04-22T09:34:35.426Z,16.50
2019-04-22T09:37:47.365Z,16.50
2019-04-22T09:40:15.283Z,16.10
2019-04-22T09:45:48.586Z,15.90
2019-04-22T09:48:23.773Z,16.10
2019-04-22T09:50:52.484Z,16.20
2019-04-22T09:53:29.719Z,16.40
2019-04-22T09:55:57.170Z,16.10
2019-04-22T09:59:03.239Z,16.20
2019-04-22T10:02:10.275Z,16.00
2019-04-22T10:04:25.337Z,15.90
2019-04-22T10:06:41.818Z,16.30
2019-04-22T10:09:47.337Z,16.20
2019-04-22T10:11:50.599Z,16.60
2019-04-22T10:14:39.689Z,16.60
2019-04-22T10:17:06.605Z,16.50
2019-04-22T10:19:53.754Z,16.60
2019-04-22T10:22:36.653Z,16.40
2019-04-22T10:25:17.053Z,15.90
2019-04-22T10:31:26.199Z,16.80
2019-04-22T10:34:02.664Z,17.10
2019-04-22T10:36:50.465Z,16.60
2019-04-22T10:39:46.083Z,16.60
2019-04-22T10:42:25.232Z,16.90
2019-04-22T10:44:55.737Z,17.20
2019-04-22T10:47:27.987Z,16.90
2019-04-22T10:50:22.683Z,17.00
2019-04-22T10:53:03.545Z,17.00
2019-04-22T10:55:45.206Z,17.00
2019-04-22T10:58:16.993Z,17.30
2019-04-22T11:00:56.139Z,17.30
2019-04-22T11:03:28.282Z,17.00
2019-04-22T11:06:19.179Z,17.10
2019-04-22T11:09:47.705Z,17.20
2019-04-22T11:12:19.235Z,17.40
2019-04-22T11:14:49.747Z,17.50
2019-04-22T11:17:23.999Z,17.50
2019-04-22T11:19:59.673Z,17.70
2019-04-22T11:22:40.693Z,17.70
2019-04-22T11:25:48.009Z,17.60
2019-04-22T11:28:31.701Z,17.60
2019-04-22T11:31:06.097Z,17.80
2019-04-22T11:34:39.745Z,17.60
2019-04-22T11:37:12.340Z,17.60
2019-04-22T11:39:44.963Z,17.90
2019-04-22T11:42:16.435Z,18.10
2019-04-22T11:45:15.285Z,18.00
2019-04-22T11:48:06.347Z,18.00
2019-04-22T11:50:42.121Z,18.00
2019-04-22T11:53:31.311Z,17.90
2019-04-22T11:56:06.746Z,17.80
2019-04-22T11:58:38.932Z,17.80
2019-04-22T12:01:12.846Z,17.80
2019-04-22T12:03:44.222Z,17.80
2019-04-22T12:06:15.819Z,18.00
2019-04-22T12:08:50.273Z,18.20
2019-04-22T12:11:20.946Z,18.30
2019-04-22T12:13:53.810Z,18.40
2019-04-22T12:16:25.718Z,18.20
2019-04-22T12:18:58.498Z,18.30
2019-04-22T12:21:29.009Z,18.20
2019-04-22T12:24:01.018Z,17.80
2019-04-22T12:27:08.409Z,17.60
2019-04-22T12:29:43.024Z,17.30
2019-04-22T12:32:48.496Z,17.60
2019-04-22T12:35:19.924Z,17.80
2019-04-22T12:38:01.473Z,17.80
2019-04-22T12:41:08.092Z,17.40
2019-04-22T12:43:41.093Z,17.40
2019-04-22T12:46:16.500Z,17.70
2019-04-22T12:53:06.835Z,18.00
2019-04-22T12:58:43.446Z,18.20
2019-04-22T13:04:32.218Z,18.30
2019-04-22T13:06:59.963Z,18.20
2019-04-22T13:09:33.531Z,18.00
2019-04-22T13:15:31.066Z,18.10
2019-04-22T13:18:31.901Z,18.30
2019-04-22T13:21:02.595Z,18.30
2019-04-22T13:23:37.327Z,17.80
2019-04-22T13:26:10.665Z,17.80
2019-04-22T13:28:59.026Z,17.60
2019-04-22T13:31:48.765Z,17.30
2019-04-22T13:34:45.836Z,17.30
2019-04-22T13:40:15.235Z,17.60
2019-04-22T13:42:49.181Z,17.80
2019-04-22T13:45:27.686Z,17.90
2019-04-22T13:48:16.765Z,17.80
2019-04-22T13:51:03.774Z,17.50
2019-04-22T13:55:56.036Z,17.30
2019-04-22T13:58:48.515Z,17.20
2019-04-22T14:01:36.689Z,17.30
2019-04-22T14:04:28.581Z,17.40
2019-04-22T14:07:00.766Z,17.80
2019-04-22T14:09:33.801Z,18.20
2019-04-22T14:12:07.616Z,18.20
2019-04-22T14:14:39.255Z,17.90
2019-04-22T14:17:11.350Z,17.20
2019-04-22T14:19:42.387Z,17.10
2019-04-22T14:22:13.784Z,17.30
2019-04-22T14:24:48.867Z,17.50
2019-04-22T14:27:37.278Z,17.30
2019-04-22T14:29:55.665Z,17.40
2019-04-22T14:32:29.319Z,17.30
2019-04-22T14:34:58.598Z,17.40
2019-04-22T14:37:34.199Z,17.50
2019-04-22T14:40:08.825Z,17.60
2019-04-22T14:42:58.919Z,17.40
2019-04-22T14:45:52.199Z,17.00
2019-04-22T14:48:12.457Z,17.20
2019-04-22T14:50:42.308Z,17.20
2019-04-22T14:53:14.453Z,17.40
2019-04-22T14:55:30.675Z,17.20
2019-04-22T14:57:59.245Z,17.20
2019-04-22T15:00:29.634Z,17.30
2019-04-22T15:03:01.359Z,17.20
2019-04-22T15:05:34.384Z,17.20
2019-04-22T15:08:07.140Z,17.20
2019-04-22T15:10:39.847Z,17.20
2019-04-22T15:13:11.651Z,17.50
2019-04-22T15:15:57.488Z,17.70
2019-04-22T15:18:42.126Z,18.00
2019-04-22T15:21:16.477Z,18.20
2019-04-22T15:23:46.976Z,19.00
2019-04-22T15:26:26.455Z,19.80
2019-04-22T15:28:57.718Z,19.40
2019-04-22T15:31:29.258Z,19.40
2019-04-22T15:34:00.574Z,19.70
2019-04-22T15:36:32.414Z,20.40
2019-04-22T15:39:07.261Z,21.10
2019-04-22T15:41:39.029Z,20.50
2019-04-22T15:44:10.123Z,20.20
2019-04-22T15:46:42.634Z,20.40
2019-04-22T15:49:13.817Z,20.50
2019-04-22T15:51:46.847Z,20.70
2019-04-22T15:54:17.427Z,20.80
2019-04-22T15:56:48.964Z,20.10
2019-04-22T15:59:38.957Z,20.20
2019-04-22T16:01:58.191Z,20.90
2019-04-22T16:04:26.468Z,20.80
2019-04-22T16:06:59.062Z,21.60
2019-04-22T16:09:36.753Z,21.10
2019-04-22T16:12:18.614Z,20.60
2019-04-22T16:14:43.482Z,20.30
2019-04-22T16:17:12.654Z,19.60
2019-04-22T16:19:43.355Z,18.80
2019-04-22T16:22:21.765Z,19.50
2019-04-22T16:25:11.158Z,20.40
2019-04-22T16:27:45.838Z,21.30
2019-04-22T16:30:17.244Z,20.80
2019-04-22T16:33:01.273Z,19.90
2019-04-22T16:35:33.110Z,18.60
2019-04-22T16:38:04.411Z,18.10
2019-04-22T16:40:36.662Z,18.70
2019-04-22T16:43:11.959Z,19.20
2019-04-22T16:45:43.601Z,19.60
2019-04-22T16:48:17.862Z,19.40
2019-04-22T16:50:52.202Z,19.30
2019-04-22T16:53:23.088Z,19.10
2019-04-22T16:55:54.882Z,18.20
2019-04-22T16:58:26.089Z,17.90
2019-04-22T17:00:56.553Z,17.50
2019-04-22T17:03:36.434Z,17.10
2019-04-22T17:06:11.797Z,17.00
2019-04-22T17:08:42.601Z,16.90
2019-04-22T17:11:13.659Z,16.60
2019-04-22T17:13:46.160Z,16.50
2019-04-22T17:16:18.070Z,16.50
2019-04-22T17:18:50.075Z,16.20
2019-04-22T17:21:23.647Z,16.10
2019-04-22T17:23:55.837Z,16.20
2019-04-22T17:26:28.537Z,15.90
2019-04-22T17:29:02.508Z,15.80
2019-04-22T17:31:31.072Z,15.90
2019-04-22T17:34:02.562Z,15.80
2019-04-22T17:36:34.111Z,15.80
2019-04-22T17:39:22.782Z,15.70
2019-04-22T17:42:03.507Z,15.60
2019-04-22T17:44:37.699Z,15.60
2019-04-22T17:47:22.003Z,15.50
2019-04-22T17:50:00.385Z,15.50
2019-04-22T17:52:39.532Z,15.50
2019-04-22T17:55:05.065Z,15.40
2019-04-22T17:57:35.683Z,15.30
2019-04-22T18:00:11.395Z,15.10
2019-04-22T18:02:39.689Z,15.10
2019-04-22T18:05:03.528Z,15.00
2019-04-22T18:07:57.948Z,14.80
2019-04-22T18:13:08.832Z,14.70
2019-04-22T18:15:27.342Z,14.60
2019-04-22T18:18:06.503Z,14.50
2019-04-22T18:20:29.370Z,14.40
2019-04-22T18:22:58.050Z,14.30
2019-04-22T18:25:36.321Z,14.30
2019-04-22T18:28:17.308Z,14.20
2019-04-22T18:30:40.740Z,14.20
2019-04-22T18:33:28.669Z,14.20
2019-04-22T18:36:02.204Z,14.20
2019-04-22T18:38:46.619Z,14.20
2019-04-22T18:41:04.789Z,14.10
2019-04-22T18:43:51.738Z,14.00
2019-04-22T18:46:21.294Z,14.00
2019-04-22T18:48:55.924Z,14.00
2019-04-22T18:51:40.921Z,14.00
2019-04-22T18:54:28.851Z,13.90
2019-04-22T18:56:58.420Z,13.90
2019-04-22T18:59:17.452Z,13.80
2019-04-22T19:01:42.232Z,13.70
2019-04-22T19:04:19.405Z,13.60
2019-04-22T19:07:11.073Z,13.50
2019-04-22T19:09:51.647Z,13.50
2019-04-22T19:12:24.156Z,13.50
2019-04-22T19:14:52.980Z,13.50
2019-04-22T19:17:35.508Z,13.50
2019-04-22T19:19:56.042Z,13.50
2019-04-22T19:22:27.676Z,13.40
2019-04-22T19:24:54.760Z,13.30
2019-04-22T19:27:26.800Z,13.20
2019-04-22T19:30:06.527Z,13.20
2019-04-22T19:32:31.039Z,13.20
2019-04-22T19:35:03.563Z,13.20
2019-04-22T19:37:32.623Z,13.20
2019-04-22T19:40:30.591Z,13.10
2019-04-22T19:42:53.560Z,13.10
2019-04-22T19:45:10.679Z,13.10
2019-04-22T19:47:53.558Z,13.00
2019-04-22T19:50:24.470Z,13.00
2019-04-22T19:52:50.294Z,13.00
2019-04-22T19:55:23.621Z,12.90
2019-04-22T19:57:54.777Z,12.90
2019-04-22T20:00:42.005Z,12.80
2019-04-22T20:03:42.779Z,12.80
2019-04-22T20:06:31.968Z,12.80
2019-04-22T20:08:59.690Z,12.80
2019-04-22T20:11:34.164Z,12.80
2019-04-22T20:14:12.671Z,12.90
2019-04-22T20:16:43.853Z,12.90
2019-04-22T20:19:19.299Z,12.90
2019-04-22T20:21:49.416Z,12.90
2019-04-22T20:24:06.729Z,13.00
2019-04-22T20:26:59.486Z,13.00
2019-04-22T20:29:35.102Z,13.10
2019-04-22T20:32:05.968Z,13.20
2019-04-22T20:34:37.965Z,13.20
2019-04-22T20:39:44.375Z,13.30
2019-04-22T20:42:31.111Z,13.20
2019-04-22T20:45:04.010Z,13.20
2019-04-22T20:47:16.578Z,13.20
2019-04-22T20:49:55.427Z,13.20
2019-04-22T20:54:58.907Z,13.10
2019-04-22T20:57:34.937Z,13.10
2019-04-22T21:00:06.176Z,13.10
2019-04-22T21:02:32.734Z,13.00
2019-04-22T21:05:18.072Z,13.00
2019-04-22T21:07:59.502Z,13.00
2019-04-22T21:10:28.288Z,12.90
2019-04-22T21:13:00.257Z,12.90
2019-04-22T21:15:43.853Z,12.90
2019-04-22T21:18:09.676Z,12.90
2019-04-22T21:20:49.560Z,12.90
2019-04-22T21:23:15.371Z,12.90
2019-04-22T21:25:36.787Z,12.80
2019-04-22T21:28:21.579Z,12.80
2019-04-22T21:30:53.962Z,12.80
2019-04-22T21:33:18.613Z,12.70
2019-04-22T21:38:32.634Z,12.70
2019-04-22T21:40:59.859Z,12.60
2019-04-22T21:43:38.608Z,12.60
2019-04-22T21:46:08.955Z,12.50
2019-04-22T21:48:44.370Z,12.60
2019-04-22T21:51:19.174Z,12.50
2019-04-22T21:53:52.192Z,12.50
2019-04-22T21:56:40.532Z,12.50
2019-04-22T21:59:01.618Z,12.40
2019-04-22T22:01:51.141Z,12.40
2019-04-22T22:04:11.584Z,12.30
2019-04-22T22:06:37.309Z,12.30
2019-04-22T22:09:16.782Z,12.20
2019-04-22T22:11:49.487Z,12.30
2019-04-22T22:14:16.980Z,12.20
2019-04-22T22:16:44.555Z,12.20
2019-04-22T22:19:22.466Z,12.20
2019-04-22T22:22:13.363Z,12.20
2019-04-22T22:24:36.978Z,12.10
2019-04-22T22:27:01.424Z,12.10
2019-04-22T22:29:46.944Z,12.10
2019-04-22T22:32:09.342Z,12.00
2019-04-22T22:34:36.219Z,12.00
2019-04-22T22:37:03.239Z,12.00
2019-04-22T22:39:35.386Z,12.00
2019-04-22T22:41:52.037Z,12.00
2019-04-22T22:44:30.358Z,11.90
2019-04-22T22:47:13.080Z,11.80
2019-04-22T22:49:50.180Z,11.80
2019-04-22T22:54:54.104Z,11.80
2019-04-22T22:57:28.931Z,11.80
2019-04-22T22:59:55.735Z,11.70
2019-04-22T23:02:28.795Z,11.70
2019-04-22T23:05:05.883Z,11.60
2019-04-22T23:07:37.145Z,11.60
2019-04-22T23:10:07.929Z,11.60
2019-04-22T23:12:55.598Z,11.70
2019-04-22T23:15:10.671Z,11.70
2019-04-22T23:17:26.053Z,11.60
2019-04-22T23:19:57.732Z,11.60
2019-04-22T23:22:39.612Z,11.60
2019-04-22T23:25:24.798Z,11.50
2019-04-22T23:27:52.547Z,11.50
2019-04-22T23:30:35.909Z,11.50
2019-04-22T23:33:18.386Z,11.50
2019-04-22T23:36:00.303Z,11.50
2019-04-22T23:38:41.342Z,11.50
2019-04-22T23:41:42.409Z,11.50
2019-04-22T23:44:10.094Z,11.50
2019-04-22T23:46:37.999Z,11.50
2019-04-22T23:49:08.038Z,11.50
2019-04-22T23:51:58.099Z,11.50
2019-04-22T23:54:24.260Z,11.40
2019-04-22T23:56:48.002Z,11.40
2019-04-22T23:59:38.163Z,11.40
